Latest Weather Observations for Mount Moornapa

IDV60801

Issued at 6:02 pm EST Saturday 30 May 2015 (issued every 30 minutes, with the page automatically refreshed every 10 minutes)

About weather observations | Map of weather stations | Latest weather observations for VIC | Other Formats
Station Details ID: 085296 Name: MOUNT MOORNAPA Lat: -37.75 Lon: 147.14 Height: 480.0 m
Data from the previous 72 hours. | See also: Recent months at Mount Moornapa
Date/Time
EST
Temp
°C
App
Temp
°C
Dew
Point
Rel
Hum
%
Delta-T
°C
Wind Press
QNH
hPa
Press
MSL
hPa
Rain
since 9 am
mm
Dir
 
Spd
km/h
Gust
km/h
Spd
kts
Gust
kts
30/06:00pm 9.8 5.7 2.4 60 3.2 NW 13 33 7 18 - - 0.0
30/05:30pm 10.1 6.0 2.5 59 3.3 NW 13 26 7 14 - - 0.0
30/05:00pm 10.1 6.0 2.2 58 3.4 NW 13 24 7 13 - - 0.0
30/04:30pm 11.6 7.1 2.4 53 4.1 NW 15 35 8 19 - - 0.0
30/04:00pm 12.4 7.6 2.8 52 4.3 NW 17 39 9 21 - - 0.0
30/03:30pm 13.2 9.2 2.7 49 4.8 NW 13 35 7 19 - - 0.0
30/03:00pm 13.8 10.2 2.7 47 5.1 NW 11 28 6 15 - - 0.0
30/02:30pm 13.4 8.9 2.3 47 5.0 NW 15 33 8 18 - - 0.0
30/02:00pm 14.0 10.0 2.6 46 5.2 NW 13 24 7 13 - - 0.0
30/01:30pm 14.4 11.2 3.2 47 5.2 WNW 9 22 5 12 - - 0.0
30/01:00pm 14.2 10.6 3.1 47 5.1 WNW 11 35 6 19 - - 0.0
30/12:30pm 14.2 10.0 3.9 50 4.8 WNW 15 30 8 16 - - 0.0
30/12:00pm 13.6 10.4 3.1 49 4.8 WNW 9 30 5 16 - - 0.0
30/11:30am 13.3 9.7 2.8 49 4.8 WNW 11 24 6 13 - - 0.0
30/11:00am 12.2 9.5 2.6 52 4.3 NW 6 17 3 9 - - 0.0
30/10:30am 12.2 9.6 3.2 54 4.1 NNW 6 9 3 5 - - 0.0
30/10:00am 12.0 9.5 3.5 56 3.9 NNW 6 13 3 7 - - 0.0
30/09:30am 11.3 8.6 3.6 59 3.5 NNW 7 13 4 7 - - 0.0
30/09:00am 10.7 7.9 3.3 60 3.3 NNW 7 15 4 8 - - 0.0
30/08:30am 8.9 5.6 2.7 65 2.7 NNW 9 15 5 8 - - 0.0
30/08:00am 8.4 5.1 2.6 67 2.5 NW 9 19 5 10 - - 0.0
30/07:30am 7.8 4.1 2.1 67 2.4 NNW 11 17 6 9 - - 0.0
30/07:00am 7.5 3.4 2.0 68 2.3 NNW 13 22 7 12 - - 0.0
30/06:30am 7.4 3.3 2.1 69 2.2 NNW 13 22 7 12 - - 0.0
30/06:00am 6.8 3.0 1.9 71 2.1 N 11 19 6 10 - - 0.0
30/05:30am 6.9 2.8 2.0 71 2.1 N 13 17 7 9 - - 0.0
30/05:00am 7.5 3.0 2.0 68 2.3 N 15 20 8 11 - - 0.0
30/04:30am 6.5 2.4 2.4 75 1.7 N 13 19 7 10 - - 0.0
30/04:00am 6.8 2.7 2.3 73 1.9 N 13 15 7 8 - - 0.0
30/03:30am 7.3 3.6 2.6 72 2.0 N 11 13 6 7 - - 0.0
30/03:00am 6.9 3.2 2.6 74 1.8 N 11 13 6 7 - - 0.0
30/02:30am 7.1 3.1 2.6 73 1.9 N 13 17 7 9 - - 0.0
30/02:00am 7.4 4.1 2.5 71 2.1 NNW 9 15 5 8 - - 0.0
30/01:30am 7.3 4.0 2.6 72 2.0 N 9 15 5 8 - - 0.0
30/01:00am 7.2 4.4 2.1 70 2.2 NNW 6 9 3 5 - - 0.0
30/12:30am 7.9 4.3 2.8 70 2.2 N 11 15 6 8 - - 0.0
30/12:00am 7.4 3.3 2.5 71 2.1 N 13 17 7 9 - - 0.0
 
Date/Time
EST
Temp
°C
App
Temp
°C
Dew
Point
Rel
Hum
%
Delta-T
°C
Wind Press
QNH
hPa
Press
MSL
hPa
Rain
since 9 am
mm
Dir
 
Spd
km/h
Gust
km/h
Spd
kts
Gust
kts
29/11:30pm 7.3 3.8 1.2 65 2.5 N 9 13 5 7 - - 0.0
29/11:00pm 7.9 4.8 1.3 63 2.8 N 7 9 4 5 - - 0.0
29/10:30pm 8.9 5.9 1.1 58 3.3 NNE 6 9 3 5 - - 0.0
29/10:00pm 9.5 6.9 0.9 55 3.6 N 4 6 2 3 - - 0.0
29/09:30pm 9.8 6.8 0.7 53 3.8 N 6 6 3 3 - - 0.0
29/09:00pm 9.5 6.6 1.2 56 3.5 NNW 6 9 3 5 - - 0.0
29/08:30pm 9.1 5.6 1.5 59 3.2 N 9 11 5 6 - - 0.0
29/08:00pm 9.1 6.2 1.3 58 3.3 NNW 6 9 3 5 - - 0.0
29/07:30pm 9.1 6.0 1.3 58 3.3 NW 7 13 4 7 - - 0.0
29/07:00pm 9.0 6.0 1.7 60 3.1 NW 7 17 4 9 - - 0.0
29/06:30pm 9.0 6.0 1.7 60 3.1 NW 7 19 4 10 - - 0.0
29/06:00pm 9.1 6.1 1.8 60 3.1 WNW 7 20 4 11 - - 0.0
29/05:30pm 9.8 6.5 2.2 59 3.3 WNW 9 20 5 11 - - 0.0
29/05:00pm 10.3 7.0 2.4 58 3.5 W 9 15 5 8 - - 0.0
29/04:30pm 11.4 8.7 3.9 60 3.4 W 7 13 4 7 - - 0.0
29/04:00pm 12.0 9.3 3.8 57 3.8 WSW 7 11 4 6 - - 0.0
29/03:30pm 12.6 9.8 3.3 53 4.2 W 7 15 4 8 - - 0.0
29/03:00pm 12.9 10.2 3.8 54 4.2 W 7 13 4 7 - - 0.0
29/02:30pm 13.1 10.5 4.0 54 4.2 W 7 15 4 8 - - 0.0
29/02:00pm 12.5 9.3 3.2 53 4.2 WSW 9 24 5 13 - - 0.0
29/01:30pm 12.4 8.4 2.6 51 4.4 WSW 13 20 7 11 - - 0.0
29/01:00pm 12.4 8.7 2.6 51 4.4 WSW 11 19 6 10 - - 0.0
29/12:30pm 12.1 8.4 2.6 52 4.3 WSW 11 19 6 10 - - 0.0
29/12:00pm 12.0 8.7 2.5 52 4.2 WSW 9 17 5 9 - - 0.0
29/11:30am 12.1 9.1 4.1 58 3.7 WSW 9 17 5 9 - - 0.0
29/11:00am 11.4 8.6 3.4 58 3.6 W 7 15 4 8 - - 0.0
29/10:30am 10.8 7.6 3.1 59 3.4 W 9 19 5 10 - - 0.0
29/10:00am 10.3 7.0 2.7 59 3.4 W 9 17 5 9 - - 0.0
29/09:30am 10.0 7.1 2.6 60 3.3 W 7 17 4 9 - - 0.0
29/09:00am 9.4 6.1 2.5 62 3.0 W 9 15 5 8 - - 0.2
29/08:30am 9.0 5.8 3.2 67 2.6 W 9 19 5 10 - - 0.2
29/08:00am 8.7 5.0 4.3 74 2.0 W 13 20 7 11 - - 0.2
29/07:30am 8.0 5.9 5.6 85 1.1 SSW 6 19 3 10 - - 0.2
29/07:00am 8.5 5.9 6.1 85 1.1 WSW 9 19 5 10 - - 0.0
29/06:30am 8.6 6.8 7.2 91 0.7 WSW 6 17 3 9 - - 0.0
29/06:00am 7.9 6.1 7.1 95 0.4 NW 6 9 3 5 - - 0.0
29/05:30am 8.2 6.5 7.4 95 0.4 NW 6 9 3 5 - - 0.0
29/05:00am 8.4 6.8 7.8 96 0.3 WSW 6 11 3 6 - - 0.0
29/04:30am 8.5 6.3 7.9 96 0.3 W 9 17 5 9 - - 0.0
29/04:00am 8.4 6.8 7.8 96 0.3 SW 6 13 3 7 - - 0.0
29/03:30am 8.3 6.6 7.7 96 0.3 SSW 6 13 3 7 - - 0.0
29/03:00am 8.5 6.9 7.9 96 0.3 S 6 11 3 6 - - 0.0
29/02:30am 8.8 7.1 8.4 97 0.2 SSE 7 9 4 5 - - 0.0
29/02:00am 9.1 7.6 9.0 99 0.1 SSE 7 17 4 9 - - 0.0
29/01:30am 9.3 7.8 9.2 99 0.1 SSE 7 13 4 7 - - 0.0
29/01:00am 9.4 8.1 9.3 99 0.1 S 6 15 3 8 - - 0.0
29/12:30am 9.6 7.8 9.3 98 0.2 S 9 15 5 8 - - 0.0
29/12:00am 10.0 8.2 9.4 96 0.3 S 9 19 5 10 - - 0.0
 
Date/Time
EST
Temp
°C
App
Temp
°C
Dew
Point
Rel
Hum
%
Delta-T
°C
Wind Press
QNH
hPa
Press
MSL
hPa
Rain
since 9 am
mm
Dir
 
Spd
km/h
Gust
km/h
Spd
kts
Gust
kts
28/11:30pm 10.9 8.4 8.0 82 1.4 S 11 17 6 9 - - 0.0
28/11:00pm 14.4 12.1 5.7 56 4.2 NW 7 19 4 10 - - 0.0
28/10:30pm 13.9 11.6 5.8 58 3.9 N 7 13 4 7 - - 0.0
28/10:00pm 13.4 10.8 6.3 62 3.5 NNW 9 17 5 9 - - 0.0
28/09:30pm 14.0 11.7 5.9 58 4.0 N 7 15 4 8 - - 0.0
28/09:00pm 13.4 11.3 6.7 64 3.3 NW 7 15 4 8 - - 0.0
28/08:30pm 13.2 10.9 7.4 68 2.9 N 9 15 5 8 - - 0.0
28/08:00pm 13.2 10.8 8.5 73 2.4 N 11 17 6 9 - - 0.0
28/07:30pm 12.7 10.8 9.0 78 1.9 NNE 9 13 5 7 - - 0.0
28/07:00pm 12.2 10.8 8.7 79 1.8 NNE 6 13 3 7 - - 0.0
28/06:30pm 12.3 10.8 9.0 80 1.7 NNE 7 13 4 7 - - 0.0
28/06:00pm 12.6 10.8 9.4 81 1.7 NNW 9 13 5 7 - - 0.0
28/05:30pm 12.6 10.4 9.4 81 1.7 N 11 13 6 7 - - 0.0
28/05:00pm 13.8 13.1 8.4 70 2.8 SE 2 7 1 4 - - 0.0
28/04:30pm 13.2 12.3 9.1 76 2.1 ESE 4 7 2 4 - - 0.0
28/04:00pm 13.7 12.8 9.2 74 2.3 ENE 4 6 2 3 - - 0.0
28/03:30pm 15.0 14.3 8.7 66 3.3 SSE 2 4 1 2 - - 0.0
28/03:00pm 15.3 14.7 8.8 65 3.4 SE 2 7 1 4 - - 0.0
28/02:30pm 14.2 12.7 8.4 68 3.0 W 6 11 3 6 - - 0.0
28/02:00pm 14.6 11.7 8.3 66 3.2 NNW 13 30 7 16 - - 0.0
28/01:30pm 15.9 13.0 8.2 60 4.0 NNW 13 24 7 13 - - 0.0
28/01:00pm 17.9 15.3 9.3 57 4.6 NNW 13 24 7 13 - - 0.0
28/12:30pm 15.3 12.9 8.8 65 3.4 NNW 11 20 6 11 - - 0.0
28/12:00pm 15.8 13.9 10.6 71 2.8 NNW 11 19 6 10 - - 0.0
28/11:30am 15.4 14.2 10.2 71 2.8 N 7 17 4 9 - - 0.0
28/11:00am 13.2 11.7 9.3 77 2.0 NNE 7 13 4 7 - - 0.0
28/10:30am 13.4 11.9 9.1 75 2.2 NNE 7 13 4 7 - - 0.0
28/10:00am 13.9 11.9 8.7 71 2.7 N 9 15 5 8 - - 0.0
28/09:30am 13.6 11.4 9.3 75 2.2 N 11 19 6 10 - - 0.0
28/09:00am 12.8 10.1 9.1 78 1.9 N 13 20 7 11 - - 0.0
28/08:30am 10.8 8.4 8.7 87 1.1 N 11 17 6 9 - - 0.0
28/08:00am 10.6 7.8 8.4 86 1.1 N 13 22 7 12 - - 0.0
28/07:30am 10.8 7.9 8.0 83 1.4 N 13 19 7 10 - - 0.0
28/07:00am 10.7 7.7 7.8 82 1.4 NNE 13 19 7 10 - - 0.0
28/06:30am 10.3 7.7 7.9 85 1.2 N 11 17 6 9 - - 0.0
28/06:00am 10.8 8.3 8.0 83 1.4 N 11 19 6 10 - - 0.0
28/05:30am 11.4 8.9 8.1 80 1.7 NNE 11 17 6 9 - - 0.0
28/05:00am 10.8 8.2 7.9 82 1.4 N 11 15 6 8 - - 0.0
28/04:30am 10.5 7.4 7.4 81 1.5 N 13 17 7 9 - - 0.0
28/04:00am 11.5 8.0 7.4 76 2.0 N 15 19 8 10 - - 0.0
28/03:30am 10.9 7.9 7.6 80 1.6 N 13 19 7 10 - - 0.0
28/03:00am 9.9 6.8 7.2 83 1.3 N 13 19 7 10 - - 0.0
28/02:30am 10.0 6.5 7.1 82 1.4 N 15 19 8 10 - - 0.0
28/02:00am 10.3 6.4 7.0 80 1.6 N 17 20 9 11 - - 0.0
28/01:30am 10.4 6.5 7.3 81 1.5 N 17 24 9 13 - - 0.0
28/01:00am 11.4 8.3 7.1 75 2.1 N 13 20 7 11 - - 0.0
28/12:30am 10.8 7.6 6.9 77 1.9 N 13 24 7 13 - - 0.0
28/12:00am 10.0 6.5 7.1 82 1.4 N 15 20 8 11 - - 0.0
 
Date/Time
EST
Temp
°C
App
Temp
°C
Dew
Point
Rel
Hum
%
Delta-T
°C
Wind Press
QNH
hPa
Press
MSL
hPa
Rain
since 9 am
mm
Dir
 
Spd
km/h
Gust
km/h
Spd
kts
Gust
kts
27/11:30pm 10.5 7.3 7.0 79 1.7 N 13 22 7 12 - - 0.0
27/11:00pm 10.4 7.2 6.9 79 1.7 N 13 24 7 13 - - 0.0
27/10:30pm 11.3 7.8 7.4 77 1.9 N 15 20 8 11 - - 0.0
27/10:00pm 11.1 7.6 7.2 77 1.9 NNW 15 22 8 12 - - 0.0
27/09:30pm 10.7 7.2 7.4 80 1.6 NNW 15 20 8 11 - - 0.0
27/09:00pm 10.8 7.7 7.3 79 1.7 NNW 13 19 7 10 - - 0.0
27/08:30pm 11.0 7.1 7.1 77 1.9 NNW 17 24 9 13 - - 0.0
27/08:00pm 10.7 7.1 6.8 77 1.9 NNW 15 20 8 11 - - 0.0
27/07:30pm 10.8 6.5 6.9 77 1.9 NNW 19 28 10 15 - - 0.0
27/07:00pm 10.9 7.4 7.2 78 1.8 N 15 22 8 12 - - 0.0
27/06:30pm 11.1 7.7 7.6 79 1.7 NNW 15 24 8 13 - - 0.0

Other Formats:

Comma delimited format used in spreadsheet applications
http://www.bom.gov.au/fwo/IDV60801/IDV60801.95913.axf

JavaScript Object Notation format (JSON) in row-major order
http://www.bom.gov.au/fwo/IDV60801/IDV60801.95913.json